Fort Fairfield, Maine
Current Conditions -  °F | °C
As of 2:54 AM on Wednesday 26 Nov 2014 (Local Time) from KCAR Reporting Station
Few Clouds Few Clouds  
Wind Chill: 31°   Ceiling: Unl
Heat Index: 39°   Visibility: 10mi
Dew Point: 24°   Wind: 14mph
Humidity: 55%   Direction: 250°WSW
Pressure: 29.97"   Gusts: 24mph
Location:  46.77°N, 67.83°W
Report Text: KCAR 260754Z AUTO 25012G21KT 10SM FEW043 FEW050 04/M04 A2997 RMK AO2 SLP157 T00391044
Loading
Personal Weather Stations






























Interactive Weather Map New forecast layout! Learn more

10-Day Weather Forecast

Advertisements
Track Severe Weather on mobile